createdAt,value
2019-01-26T00:02:22.944Z,5.22
2019-01-26T00:07:24.653Z,5.27
2019-01-26T00:12:26.803Z,5.32
2019-01-26T00:17:28.382Z,5.35
2019-01-26T00:22:30.007Z,5.35
2019-01-26T00:27:31.577Z,5.39
2019-01-26T00:32:33.151Z,5.37
2019-01-26T00:37:34.719Z,5.33
2019-01-26T00:42:36.334Z,5.28
2019-01-26T00:47:37.993Z,5.20
2019-01-26T00:52:39.563Z,5.10
2019-01-26T00:57:41.144Z,5.07
2019-01-26T01:02:42.753Z,5.03
2019-01-26T01:07:44.414Z,5.00
2019-01-26T01:12:46.033Z,5.05
2019-01-26T01:17:47.539Z,5.02
2019-01-26T01:22:49.135Z,5.03
2019-01-26T01:27:50.665Z,5.00
2019-01-26T01:32:52.247Z,4.99
2019-01-26T01:37:53.880Z,4.97
2019-01-26T01:42:55.408Z,4.97
2019-01-26T01:47:56.974Z,5.02
2019-01-26T01:52:58.524Z,5.05
2019-01-26T01:58:00.216Z,5.11
2019-01-26T02:03:02.099Z,5.14
2019-01-26T02:08:03.634Z,5.18
2019-01-26T02:13:05.177Z,5.23
2019-01-26T02:18:06.792Z,5.24
2019-01-26T02:23:08.805Z,5.26
2019-01-26T02:28:10.384Z,5.25
2019-01-26T02:33:11.949Z,5.27
2019-01-26T02:38:13.839Z,5.25
2019-01-26T02:43:15.424Z,5.26
2019-01-26T02:48:16.993Z,5.30
2019-01-26T02:53:18.493Z,5.31
2019-01-26T02:58:20.356Z,5.30
2019-01-26T03:03:21.868Z,5.30
2019-01-26T03:08:23.447Z,5.24
2019-01-26T03:13:24.992Z,5.19
2019-01-26T03:18:26.610Z,5.14
2019-01-26T03:23:28.195Z,5.08
2019-01-26T03:28:30.320Z,5.06
2019-01-26T03:33:31.870Z,5.07
2019-01-26T03:38:33.414Z,5.08
2019-01-26T03:43:34.908Z,5.05
2019-01-26T03:48:36.462Z,5.06
2019-01-26T03:53:38.366Z,5.10
2019-01-26T03:58:39.925Z,5.15
2019-01-26T04:03:41.490Z,5.17
2019-01-26T04:08:43.022Z,5.18
2019-01-26T04:13:44.946Z,5.20
2019-01-26T04:18:46.509Z,5.21
2019-01-26T04:23:48.487Z,5.23
2019-01-26T04:28:50.112Z,5.21
2019-01-26T04:33:51.685Z,5.07
2019-01-26T04:38:53.237Z,4.98
2019-01-26T04:43:54.804Z,4.91
2019-01-26T04:48:56.316Z,4.88
2019-01-26T04:53:57.847Z,4.93
2019-01-26T04:58:59.417Z,5.02
2019-01-26T05:04:00.990Z,5.07
2019-01-26T05:09:04.916Z,5.15
2019-01-26T05:14:06.490Z,5.21
2019-01-26T05:19:08.454Z,5.26
2019-01-26T05:24:10.005Z,5.31
2019-01-26T05:29:11.574Z,5.32
2019-01-26T05:34:13.120Z,5.37
2019-01-26T05:39:14.726Z,5.43
2019-01-26T05:44:16.234Z,5.49
2019-01-26T05:49:18.081Z,5.54
2019-01-26T05:54:19.686Z,5.59
2019-01-26T05:59:21.595Z,5.61
2019-01-26T06:04:23.573Z,5.65
2019-01-26T06:09:25.436Z,5.67
2019-01-26T06:14:27.391Z,5.70
2019-01-26T06:19:28.977Z,5.76
2019-01-26T06:24:30.565Z,5.80
2019-01-26T06:29:32.224Z,5.82
2019-01-26T06:34:34.262Z,5.82
2019-01-26T06:39:35.871Z,5.84
2019-01-26T06:44:37.959Z,5.85
2019-01-26T06:49:39.776Z,5.90
2019-01-26T06:54:41.720Z,5.89
2019-01-26T06:59:43.372Z,5.91
2019-01-26T07:04:44.890Z,5.94
2019-01-26T07:09:46.500Z,5.97
2019-01-26T07:14:48.045Z,5.98
2019-01-26T07:19:50.062Z,6.00
2019-01-26T07:24:51.764Z,6.03
2019-01-26T07:29:53.375Z,6.04
2019-01-26T07:34:54.996Z,6.07
2019-01-26T07:39:56.667Z,6.07
2019-01-26T07:44:58.626Z,6.11
2019-01-26T07:50:00.296Z,6.11
2019-01-26T07:55:02.216Z,6.13
2019-01-26T08:00:06.422Z,6.18
2019-01-26T08:05:09.131Z,6.18
2019-01-26T08:10:12.829Z,6.17
2019-01-26T08:15:17.070Z,6.19
2019-01-26T08:20:19.136Z,6.20
2019-01-26T08:25:20.943Z,6.24
2019-01-26T08:30:22.616Z,6.27
2019-01-26T08:35:24.200Z,6.26
2019-01-26T08:40:25.977Z,6.24
2019-01-26T08:45:27.608Z,6.28
2019-01-26T08:50:29.314Z,6.29
2019-01-26T08:55:31.203Z,6.32
2019-01-26T09:00:32.834Z,6.28
2019-01-26T09:05:34.780Z,6.30
2019-01-26T09:10:36.538Z,6.33
2019-01-26T09:15:39.614Z,6.34
2019-01-26T09:20:41.216Z,6.36
2019-01-26T09:25:43.014Z,6.40
2019-01-26T09:30:44.602Z,6.46
2019-01-26T09:35:46.658Z,6.52
2019-01-26T09:40:49.474Z,6.55
2019-01-26T09:45:51.420Z,6.62
2019-01-26T09:50:53.266Z,6.77
2019-01-26T09:55:54.967Z,6.97
2019-01-26T10:00:56.617Z,7.02
2019-01-26T10:05:58.292Z,6.99
2019-01-26T10:11:00.033Z,7.07
2019-01-26T10:16:03.720Z,7.02
2019-01-26T10:21:05.539Z,7.06
2019-01-26T10:26:07.615Z,7.06
2019-01-26T10:31:11.080Z,7.03
2019-01-26T10:36:12.619Z,6.96
2019-01-26T10:41:14.176Z,6.93
2019-01-26T10:46:15.775Z,7.03
2019-01-26T10:51:17.662Z,7.25
2019-01-26T10:56:20.757Z,7.22
2019-01-26T11:01:28.250Z,7.22
2019-01-26T11:06:29.992Z,7.28
2019-01-26T11:11:31.673Z,7.42
2019-01-26T11:16:33.662Z,7.44
2019-01-26T11:21:35.323Z,7.50
2019-01-26T11:26:36.891Z,7.63
2019-01-26T11:31:38.426Z,7.73
2019-01-26T11:36:40.108Z,7.74
2019-01-26T11:41:41.901Z,7.75
2019-01-26T11:46:43.461Z,7.78
2019-01-26T11:51:45.094Z,7.77
2019-01-26T11:56:46.895Z,7.74
2019-01-26T12:01:48.461Z,7.78
2019-01-26T12:06:50.083Z,7.77
2019-01-26T12:11:51.643Z,7.75
2019-01-26T12:16:53.237Z,7.73
2019-01-26T12:21:55.221Z,7.69
2019-01-26T12:26:56.771Z,7.72
2019-01-26T12:31:58.509Z,7.71
2019-01-26T12:37:07.684Z,7.73
2019-01-26T12:42:09.561Z,7.69
2019-01-26T12:47:16.945Z,7.69
2019-01-26T12:52:14.556Z,7.76
2019-01-26T12:57:16.117Z,7.80
2019-01-26T13:02:18.111Z,7.90
2019-01-26T13:07:19.994Z,8.01
2019-01-26T13:12:21.680Z,8.06
2019-01-26T13:17:23.249Z,8.03
2019-01-26T13:22:24.861Z,7.91
2019-01-26T13:27:26.433Z,7.93
2019-01-26T13:32:27.974Z,7.90
2019-01-26T13:37:30.077Z,7.92
2019-01-26T13:42:31.673Z,7.91
2019-01-26T13:47:37.770Z,7.85
2019-01-26T13:52:37.829Z,7.78
2019-01-26T13:57:39.396Z,7.76
2019-01-26T14:02:41.160Z,7.76
2019-01-26T14:07:42.690Z,7.73
2019-01-26T14:12:44.600Z,7.79
2019-01-26T14:17:46.165Z,7.83
2019-01-26T14:22:47.713Z,7.80
2019-01-26T14:27:49.681Z,7.69
2019-01-26T14:32:52.531Z,7.62
2019-01-26T14:37:54.494Z,7.58
2019-01-26T14:42:56.058Z,7.55
2019-01-26T14:47:57.685Z,7.55
2019-01-26T14:53:00.127Z,7.69
2019-01-26T14:58:01.801Z,7.72
2019-01-26T15:03:03.743Z,7.67
2019-01-26T15:08:05.355Z,7.57
2019-01-26T15:13:07.002Z,7.49
2019-01-26T15:18:08.566Z,7.45
2019-01-26T15:23:10.361Z,7.39
2019-01-26T15:28:11.935Z,7.35
2019-01-26T15:33:13.578Z,7.33
2019-01-26T15:38:15.664Z,7.31
2019-01-26T15:43:17.210Z,7.30
2019-01-26T15:48:18.780Z,7.29
2019-01-26T15:53:20.742Z,7.25
2019-01-26T15:58:25.244Z,7.20
2019-01-26T16:03:27.145Z,7.14
2019-01-26T16:08:28.745Z,7.15
2019-01-26T16:13:30.897Z,7.08
2019-01-26T16:18:32.427Z,6.97
2019-01-26T16:23:34.011Z,6.91
2019-01-26T16:28:35.696Z,6.92
2019-01-26T16:33:41.731Z,6.92
2019-01-26T16:38:43.497Z,7.07
2019-01-26T16:43:45.155Z,6.93
2019-01-26T16:48:46.719Z,6.86
2019-01-26T16:53:48.272Z,6.87
2019-01-26T16:58:50.027Z,6.84
2019-01-26T17:03:52.017Z,6.81
2019-01-26T17:08:53.923Z,6.66
2019-01-26T17:13:55.893Z,6.56
2019-01-26T17:18:57.481Z,6.58
2019-01-26T17:23:59.069Z,6.65
2019-01-26T17:29:01.129Z,6.71
2019-01-26T17:34:02.865Z,6.73
2019-01-26T17:39:07.056Z,6.76
2019-01-26T17:44:08.765Z,6.80
2019-01-26T17:49:10.419Z,6.83
2019-01-26T17:54:12.042Z,6.82
2019-01-26T17:59:13.741Z,6.80
2019-01-26T18:04:15.351Z,6.78
2019-01-26T18:09:17.167Z,6.79
2019-01-26T18:14:18.876Z,6.80
2019-01-26T18:19:20.466Z,6.83
2019-01-26T18:24:22.084Z,6.87
2019-01-26T18:29:23.718Z,6.91
2019-01-26T18:34:25.783Z,6.92
2019-01-26T18:39:27.543Z,6.83
2019-01-26T18:44:29.163Z,6.79
2019-01-26T18:49:31.241Z,6.76
2019-01-26T18:54:32.948Z,6.78
2019-01-26T18:59:34.592Z,6.77
2019-01-26T19:04:40.314Z,6.78
2019-01-26T19:09:42.563Z,6.76
2019-01-26T19:14:44.327Z,6.76
2019-01-26T19:19:46.117Z,6.76
2019-01-26T19:24:47.889Z,6.78
2019-01-26T19:29:49.788Z,6.77
2019-01-26T19:34:51.834Z,6.77
2019-01-26T19:39:53.549Z,6.76
2019-01-26T19:44:55.163Z,6.75
2019-01-26T19:49:56.757Z,6.73
2019-01-26T19:54:58.387Z,6.70
2019-01-26T20:00:00.032Z,6.72
2019-01-26T20:05:01.926Z,6.74
2019-01-26T20:10:04.775Z,6.70
2019-01-26T20:15:10.071Z,6.65
2019-01-26T20:20:14.784Z,6.67
2019-01-26T20:25:16.892Z,6.70
2019-01-26T20:30:21.699Z,6.68
2019-01-26T20:35:23.508Z,6.71
2019-01-26T20:40:25.154Z,6.68
2019-01-26T20:45:29.998Z,6.69
2019-01-26T20:50:31.644Z,6.67
2019-01-26T20:55:33.179Z,6.65
2019-01-26T21:00:35.025Z,6.65
2019-01-26T21:05:36.657Z,6.64
2019-01-26T21:10:38.450Z,6.62
2019-01-26T21:15:41.101Z,6.61
2019-01-26T21:20:42.696Z,6.59
2019-01-26T21:25:44.670Z,6.57
2019-01-26T21:30:46.414Z,6.50
2019-01-26T21:35:47.986Z,6.41
2019-01-26T21:40:49.651Z,6.41
2019-01-26T21:45:51.216Z,6.40
2019-01-26T21:50:53.314Z,6.40
2019-01-26T21:55:55.682Z,6.39
2019-01-26T22:00:57.436Z,6.41
2019-01-26T22:06:00.966Z,6.42
2019-01-26T22:11:03.765Z,6.41
2019-01-26T22:16:05.430Z,6.43
2019-01-26T22:21:07.028Z,6.41
2019-01-26T22:26:08.967Z,6.43
2019-01-26T22:31:10.527Z,6.41
2019-01-26T22:36:12.557Z,6.40
2019-01-26T22:41:14.327Z,6.39
2019-01-26T22:46:16.266Z,6.40
2019-01-26T22:51:17.972Z,6.42
2019-01-26T22:56:20.030Z,6.41
2019-01-26T23:01:28.262Z,6.44
2019-01-26T23:06:48.375Z,6.46
2019-01-26T23:12:32.296Z,6.45
2019-01-26T23:17:49.720Z,6.43
2019-01-26T23:23:44.999Z,6.43
2019-01-26T23:29:23.486Z,6.46
2019-01-26T23:34:25.036Z,6.46
2019-01-26T23:39:26.737Z,6.45
2019-01-26T23:44:28.801Z,6.45
2019-01-26T23:49:30.364Z,6.47
2019-01-26T23:54:32.159Z,6.48
2019-01-26T23:59:38.655Z,6.46
